Terminal Aerodrome Forecast
Issued by NWS

Home | Current Version | Previous Version | Text Only | Print | Product List | Glossary On
Versions: 1 2 3 4 5 6 7 8 9 10 11 12 13
000
FTUS45 KABQ 281740
TAFSAF
TAF
KSAF 281740Z 2818/2918 VRB06KT P6SM SCT060 SCT120
     FM281900 24007KT P6SM VCSH SCT070 BKN100
     FM282100 23008KT P6SM VCSH SCT070 BKN100
      TEMPO 2821/2824 VRB16G28KT -TSRA BKN060CB BKN100
     FM290000 15007KT P6SM VCSH OVC060
     FM290400 36006KT P6SM BKN070=

USA.gov is the U.S. government's official web portal to all federal, state and local government web resources and services.